sensor_id;sensor_type;location;lat;lon;timestamp;P1;durP1;ratioP1;P2;durP2;ratioP2
73776;SDS011;62088;50.240;2.696;2023-06-22T00:00:15;4.38;;;2.60;;
73776;SDS011;62088;50.240;2.696;2023-06-22T00:02:42;4.63;;;2.50;;
73776;SDS011;62088;50.240;2.696;2023-06-22T00:05:09;4.85;;;2.58;;
73776;SDS011;62088;50.240;2.696;2023-06-22T00:07:36;4.72;;;2.78;;
73776;SDS011;62088;50.240;2.696;2023-06-22T00:10:03;5.15;;;2.72;;
73776;SDS011;62088;50.240;2.696;2023-06-22T00:12:30;4.03;;;2.40;;
73776;SDS011;62088;50.240;2.696;2023-06-22T00:14:58;5.78;;;2.70;;
73776;SDS011;62088;50.240;2.696;2023-06-22T00:17:25;5.65;;;2.75;;
73776;SDS011;62088;50.240;2.696;2023-06-22T00:19:52;4.60;;;2.95;;
73776;SDS011;62088;50.240;2.696;2023-06-22T00:22:22;5.32;;;2.85;;
73776;SDS011;62088;50.240;2.696;2023-06-22T00:24:55;6.38;;;3.30;;
73776;SDS011;62088;50.240;2.696;2023-06-22T00:27:23;9.52;;;3.05;;
73776;SDS011;62088;50.240;2.696;2023-06-22T00:29:50;4.72;;;2.88;;
73776;SDS011;62088;50.240;2.696;2023-06-22T00:32:18;5.65;;;3.20;;
73776;SDS011;62088;50.240;2.696;2023-06-22T00:34:46;4.93;;;2.90;;
73776;SDS011;62088;50.240;2.696;2023-06-22T00:37:14;5.22;;;2.55;;
73776;SDS011;62088;50.240;2.696;2023-06-22T00:39:42;4.65;;;2.80;;
73776;SDS011;62088;50.240;2.696;2023-06-22T00:42:10;7.22;;;3.05;;
73776;SDS011;62088;50.240;2.696;2023-06-22T00:44:37;3.97;;;2.28;;
73776;SDS011;62088;50.240;2.696;2023-06-22T00:47:04;4.82;;;2.53;;
73776;SDS011;62088;50.240;2.696;2023-06-22T00:49:33;5.03;;;2.70;;
73776;SDS011;62088;50.240;2.696;2023-06-22T00:52:00;6.32;;;3.10;;
73776;SDS011;62088;50.240;2.696;2023-06-22T00:54:27;4.50;;;2.53;;
73776;SDS011;62088;50.240;2.696;2023-06-22T00:56:55;6.55;;;2.92;;
73776;SDS011;62088;50.240;2.696;2023-06-22T00:59:24;5.72;;;3.00;;
73776;SDS011;62088;50.240;2.696;2023-06-22T01:01:52;5.38;;;2.85;;
73776;SDS011;62088;50.240;2.696;2023-06-22T01:04:19;4.35;;;2.75;;
73776;SDS011;62088;50.240;2.696;2023-06-22T01:06:53;6.00;;;3.03;;
73776;SDS011;62088;50.240;2.696;2023-06-22T01:09:29;4.85;;;2.65;;
73776;SDS011;62088;50.240;2.696;2023-06-22T01:12:01;5.22;;;3.05;;
73776;SDS011;62088;50.240;2.696;2023-06-22T01:17:13;6.65;;;3.42;;
73776;SDS011;62088;50.240;2.696;2023-06-22T01:19:49;6.53;;;3.35;;
73776;SDS011;62088;50.240;2.696;2023-06-22T01:22:28;6.07;;;3.67;;
73776;SDS011;62088;50.240;2.696;2023-06-22T01:25:12;6.00;;;3.38;;
73776;SDS011;62088;50.240;2.696;2023-06-22T01:28:03;11.18;;;3.72;;
73776;SDS011;62088;50.240;2.696;2023-06-22T01:30:43;7.20;;;3.70;;
73776;SDS011;62088;50.240;2.696;2023-06-22T01:33:13;5.82;;;3.35;;
73776;SDS011;62088;50.240;2.696;2023-06-22T01:35:41;5.00;;;3.08;;
73776;SDS011;62088;50.240;2.696;2023-06-22T01:38:09;5.72;;;3.30;;
73776;SDS011;62088;50.240;2.696;2023-06-22T01:40:38;7.75;;;3.70;;
73776;SDS011;62088;50.240;2.696;2023-06-22T01:43:05;6.88;;;3.67;;
73776;SDS011;62088;50.240;2.696;2023-06-22T01:45:34;6.18;;;3.55;;
73776;SDS011;62088;50.240;2.696;2023-06-22T01:48:01;7.88;;;3.75;;
73776;SDS011;62088;50.240;2.696;2023-06-22T01:50:29;6.55;;;3.85;;
73776;SDS011;62088;50.240;2.696;2023-06-22T01:52:57;5.90;;;3.40;;
73776;SDS011;62088;50.240;2.696;2023-06-22T01:55:25;8.55;;;3.90;;
73776;SDS011;62088;50.240;2.696;2023-06-22T01:57:52;7.43;;;4.00;;
73776;SDS011;62088;50.240;2.696;2023-06-22T02:00:19;6.03;;;4.07;;
73776;SDS011;62088;50.240;2.696;2023-06-22T02:08:17;7.50;;;3.63;;
73776;SDS011;62088;50.240;2.696;2023-06-22T02:10:53;9.52;;;4.00;;
73776;SDS011;62088;50.240;2.696;2023-06-22T02:13:23;6.60;;;4.10;;
73776;SDS011;62088;50.240;2.696;2023-06-22T02:15:51;7.88;;;4.60;;
73776;SDS011;62088;50.240;2.696;2023-06-22T02:18:18;7.53;;;4.53;;
73776;SDS011;62088;50.240;2.696;2023-06-22T02:20:47;8.80;;;4.43;;
73776;SDS011;62088;50.240;2.696;2023-06-22T02:23:14;13.23;;;4.88;;
73776;SDS011;62088;50.240;2.696;2023-06-22T02:25:41;8.13;;;4.82;;
73776;SDS011;62088;50.240;2.696;2023-06-22T02:28:10;8.02;;;4.90;;
73776;SDS011;62088;50.240;2.696;2023-06-22T02:30:38;7.38;;;4.40;;
73776;SDS011;62088;50.240;2.696;2023-06-22T02:33:06;8.43;;;4.38;;
73776;SDS011;62088;50.240;2.696;2023-06-22T02:35:33;13.98;;;5.07;;
73776;SDS011;62088;50.240;2.696;2023-06-22T02:38:02;7.97;;;5.28;;
73776;SDS011;62088;50.240;2.696;2023-06-22T02:40:30;8.80;;;4.75;;
73776;SDS011;62088;50.240;2.696;2023-06-22T02:42:58;8.23;;;4.38;;
73776;SDS011;62088;50.240;2.696;2023-06-22T02:45:28;9.20;;;5.10;;
73776;SDS011;62088;50.240;2.696;2023-06-22T02:47:56;7.93;;;4.65;;
73776;SDS011;62088;50.240;2.696;2023-06-22T02:50:24;8.27;;;4.80;;
73776;SDS011;62088;50.240;2.696;2023-06-22T02:52:52;8.02;;;4.32;;
73776;SDS011;62088;50.240;2.696;2023-06-22T02:55:20;9.32;;;5.15;;
73776;SDS011;62088;50.240;2.696;2023-06-22T02:57:53;7.25;;;5.03;;
73776;SDS011;62088;50.240;2.696;2023-06-22T03:00:20;7.63;;;4.65;;
73776;SDS011;62088;50.240;2.696;2023-06-22T03:02:48;9.98;;;4.97;;
73776;SDS011;62088;50.240;2.696;2023-06-22T03:05:17;7.95;;;4.68;;
73776;SDS011;62088;50.240;2.696;2023-06-22T03:07:45;8.95;;;5.05;;
73776;SDS011;62088;50.240;2.696;2023-06-22T03:10:13;9.57;;;5.13;;
73776;SDS011;62088;50.240;2.696;2023-06-22T03:12:42;7.55;;;4.90;;
73776;SDS011;62088;50.240;2.696;2023-06-22T03:15:10;13.13;;;5.07;;
73776;SDS011;62088;50.240;2.696;2023-06-22T03:17:39;8.27;;;4.78;;
73776;SDS011;62088;50.240;2.696;2023-06-22T03:20:08;8.93;;;5.10;;
73776;SDS011;62088;50.240;2.696;2023-06-22T03:22:37;9.60;;;5.95;;
73776;SDS011;62088;50.240;2.696;2023-06-22T03:25:06;8.80;;;4.65;;
73776;SDS011;62088;50.240;2.696;2023-06-22T03:27:41;9.07;;;5.28;;
73776;SDS011;62088;50.240;2.696;2023-06-22T03:30:10;7.63;;;4.85;;
73776;SDS011;62088;50.240;2.696;2023-06-22T03:32:38;7.15;;;4.40;;
73776;SDS011;62088;50.240;2.696;2023-06-22T03:35:06;9.70;;;5.43;;
73776;SDS011;62088;50.240;2.696;2023-06-22T03:37:35;9.63;;;5.90;;
73776;SDS011;62088;50.240;2.696;2023-06-22T03:40:02;10.27;;;5.70;;
73776;SDS011;62088;50.240;2.696;2023-06-22T03:42:34;9.93;;;6.97;;
73776;SDS011;62088;50.240;2.696;2023-06-22T03:45:04;9.20;;;5.30;;
73776;SDS011;62088;50.240;2.696;2023-06-22T03:47:31;13.25;;;5.72;;
73776;SDS011;62088;50.240;2.696;2023-06-22T03:49:59;10.65;;;5.88;;
73776;SDS011;62088;50.240;2.696;2023-06-22T03:52:27;9.73;;;5.70;;
73776;SDS011;62088;50.240;2.696;2023-06-22T03:54:54;9.43;;;5.30;;
73776;SDS011;62088;50.240;2.696;2023-06-22T03:57:21;7.80;;;4.97;;
73776;SDS011;62088;50.240;2.696;2023-06-22T03:59:48;9.90;;;5.60;;
73776;SDS011;62088;50.240;2.696;2023-06-22T04:02:15;10.60;;;5.60;;
73776;SDS011;62088;50.240;2.696;2023-06-22T04:04:42;9.48;;;5.63;;
73776;SDS011;62088;50.240;2.696;2023-06-22T04:07:09;10.70;;;6.43;;
73776;SDS011;62088;50.240;2.696;2023-06-22T04:09:36;8.88;;;5.10;;
73776;SDS011;62088;50.240;2.696;2023-06-22T04:12:03;10.43;;;6.45;;
73776;SDS011;62088;50.240;2.696;2023-06-22T04:14:31;8.60;;;6.05;;
73776;SDS011;62088;50.240;2.696;2023-06-22T04:16:58;12.25;;;6.22;;
73776;SDS011;62088;50.240;2.696;2023-06-22T04:19:25;10.30;;;6.22;;
73776;SDS011;62088;50.240;2.696;2023-06-22T04:21:52;11.65;;;6.55;;
73776;SDS011;62088;50.240;2.696;2023-06-22T04:24:19;9.93;;;6.65;;
73776;SDS011;62088;50.240;2.696;2023-06-22T04:26:46;9.68;;;6.13;;
73776;SDS011;62088;50.240;2.696;2023-06-22T04:29:14;8.68;;;6.35;;
73776;SDS011;62088;50.240;2.696;2023-06-22T04:31:41;10.52;;;6.05;;
73776;SDS011;62088;50.240;2.696;2023-06-22T04:34:08;10.50;;;6.75;;
73776;SDS011;62088;50.240;2.696;2023-06-22T04:36:36;10.25;;;5.20;;
73776;SDS011;62088;50.240;2.696;2023-06-22T04:39:09;9.15;;;5.97;;
73776;SDS011;62088;50.240;2.696;2023-06-22T04:41:38;9.95;;;6.88;;
73776;SDS011;62088;50.240;2.696;2023-06-22T04:46:37;11.18;;;7.35;;
73776;SDS011;62088;50.240;2.696;2023-06-22T04:49:05;11.98;;;6.88;;
73776;SDS011;62088;50.240;2.696;2023-06-22T04:51:37;8.63;;;6.45;;
73776;SDS011;62088;50.240;2.696;2023-06-22T04:54:08;9.65;;;6.30;;
73776;SDS011;62088;50.240;2.696;2023-06-22T04:56:36;19.17;;;7.30;;
73776;SDS011;62088;50.240;2.696;2023-06-22T04:59:03;9.32;;;6.30;;
73776;SDS011;62088;50.240;2.696;2023-06-22T05:01:30;14.90;;;7.38;;
73776;SDS011;62088;50.240;2.696;2023-06-22T05:03:58;12.52;;;7.25;;
73776;SDS011;62088;50.240;2.696;2023-06-22T05:06:27;12.60;;;7.65;;
73776;SDS011;62088;50.240;2.696;2023-06-22T05:08:55;13.70;;;7.07;;
73776;SDS011;62088;50.240;2.696;2023-06-22T05:11:26;12.90;;;7.95;;
73776;SDS011;62088;50.240;2.696;2023-06-22T05:13:54;10.90;;;8.13;;
73776;SDS011;62088;50.240;2.696;2023-06-22T05:16:21;12.43;;;8.00;;
73776;SDS011;62088;50.240;2.696;2023-06-22T05:18:54;11.43;;;7.55;;
73776;SDS011;62088;50.240;2.696;2023-06-22T05:21:22;12.77;;;8.32;;
73776;SDS011;62088;50.240;2.696;2023-06-22T05:23:51;11.75;;;7.20;;
73776;SDS011;62088;50.240;2.696;2023-06-22T05:26:19;13.15;;;8.75;;
73776;SDS011;62088;50.240;2.696;2023-06-22T05:28:46;11.50;;;7.72;;
73776;SDS011;62088;50.240;2.696;2023-06-22T05:31:14;14.85;;;8.50;;
73776;SDS011;62088;50.240;2.696;2023-06-22T05:33:42;9.82;;;7.28;;
73776;SDS011;62088;50.240;2.696;2023-06-22T05:36:10;9.25;;;6.88;;
73776;SDS011;62088;50.240;2.696;2023-06-22T05:38:39;10.85;;;8.20;;
73776;SDS011;62088;50.240;2.696;2023-06-22T05:41:07;12.15;;;8.27;;
73776;SDS011;62088;50.240;2.696;2023-06-22T05:43:34;11.27;;;7.65;;
73776;SDS011;62088;50.240;2.696;2023-06-22T05:46:01;11.52;;;6.25;;
73776;SDS011;62088;50.240;2.696;2023-06-22T05:48:28;13.82;;;8.25;;
73776;SDS011;62088;50.240;2.696;2023-06-22T05:50:56;13.45;;;8.25;;
73776;SDS011;62088;50.240;2.696;2023-06-22T05:53:23;14.57;;;7.95;;
73776;SDS011;62088;50.240;2.696;2023-06-22T05:55:50;11.23;;;7.60;;
73776;SDS011;62088;50.240;2.696;2023-06-22T05:58:18;11.25;;;8.00;;
73776;SDS011;62088;50.240;2.696;2023-06-22T06:00:45;11.27;;;7.70;;
73776;SDS011;62088;50.240;2.696;2023-06-22T06:03:12;11.52;;;6.53;;
73776;SDS011;62088;50.240;2.696;2023-06-22T06:05:43;8.88;;;6.40;;
73776;SDS011;62088;50.240;2.696;2023-06-22T06:08:12;10.27;;;7.05;;
73776;SDS011;62088;50.240;2.696;2023-06-22T06:10:39;11.75;;;8.68;;
73776;SDS011;62088;50.240;2.696;2023-06-22T06:13:06;14.80;;;8.85;;
73776;SDS011;62088;50.240;2.696;2023-06-22T06:15:33;12.80;;;8.90;;
73776;SDS011;62088;50.240;2.696;2023-06-22T06:18:01;11.77;;;7.97;;
73776;SDS011;62088;50.240;2.696;2023-06-22T06:20:31;13.02;;;7.32;;
73776;SDS011;62088;50.240;2.696;2023-06-22T06:22:59;13.32;;;7.72;;
73776;SDS011;62088;50.240;2.696;2023-06-22T06:25:26;11.55;;;7.82;;
73776;SDS011;62088;50.240;2.696;2023-06-22T06:27:53;13.57;;;7.85;;
73776;SDS011;62088;50.240;2.696;2023-06-22T06:30:23;11.90;;;8.88;;
73776;SDS011;62088;50.240;2.696;2023-06-22T06:32:50;17.63;;;8.90;;
73776;SDS011;62088;50.240;2.696;2023-06-22T06:35:17;14.05;;;8.27;;
73776;SDS011;62088;50.240;2.696;2023-06-22T06:37:46;14.82;;;8.80;;
73776;SDS011;62088;50.240;2.696;2023-06-22T06:40:15;17.98;;;9.35;;
73776;SDS011;62088;50.240;2.696;2023-06-22T06:42:47;31.35;;;9.73;;
73776;SDS011;62088;50.240;2.696;2023-06-22T06:45:16;21.17;;;8.55;;
73776;SDS011;62088;50.240;2.696;2023-06-22T06:47:51;16.10;;;7.75;;
73776;SDS011;62088;50.240;2.696;2023-06-22T06:50:19;13.57;;;7.80;;
73776;SDS011;62088;50.240;2.696;2023-06-22T06:52:46;11.95;;;7.05;;
73776;SDS011;62088;50.240;2.696;2023-06-22T06:55:13;16.17;;;7.78;;
73776;SDS011;62088;50.240;2.696;2023-06-22T06:57:41;16.83;;;7.28;;
73776;SDS011;62088;50.240;2.696;2023-06-22T07:00:10;10.85;;;6.80;;
73776;SDS011;62088;50.240;2.696;2023-06-22T07:02:44;22.75;;;7.70;;
73776;SDS011;62088;50.240;2.696;2023-06-22T07:05:14;16.17;;;7.13;;
73776;SDS011;62088;50.240;2.696;2023-06-22T07:07:41;15.48;;;7.05;;
73776;SDS011;62088;50.240;2.696;2023-06-22T07:10:09;16.80;;;6.82;;
73776;SDS011;62088;50.240;2.696;2023-06-22T07:12:37;13.68;;;6.65;;
73776;SDS011;62088;50.240;2.696;2023-06-22T07:15:05;12.25;;;7.10;;
73776;SDS011;62088;50.240;2.696;2023-06-22T07:17:36;11.60;;;6.45;;
73776;SDS011;62088;50.240;2.696;2023-06-22T07:20:06;14.77;;;6.90;;
73776;SDS011;62088;50.240;2.696;2023-06-22T07:22:39;10.32;;;6.43;;
73776;SDS011;62088;50.240;2.696;2023-06-22T07:25:07;9.00;;;5.65;;
73776;SDS011;62088;50.240;2.696;2023-06-22T07:27:46;9.77;;;6.07;;
73776;SDS011;62088;50.240;2.696;2023-06-22T07:30:24;7.65;;;5.35;;
73776;SDS011;62088;50.240;2.696;2023-06-22T07:32:51;12.18;;;5.47;;
73776;SDS011;62088;50.240;2.696;2023-06-22T07:35:18;9.52;;;5.80;;
73776;SDS011;62088;50.240;2.696;2023-06-22T07:37:45;8.35;;;5.57;;
73776;SDS011;62088;50.240;2.696;2023-06-22T07:40:12;9.30;;;5.25;;
73776;SDS011;62088;50.240;2.696;2023-06-22T07:42:39;8.20;;;4.95;;
73776;SDS011;62088;50.240;2.696;2023-06-22T07:45:07;8.88;;;4.97;;
73776;SDS011;62088;50.240;2.696;2023-06-22T07:47:35;10.20;;;5.25;;
73776;SDS011;62088;50.240;2.696;2023-06-22T07:50:02;8.32;;;4.95;;
73776;SDS011;62088;50.240;2.696;2023-06-22T07:52:30;8.70;;;4.88;;
73776;SDS011;62088;50.240;2.696;2023-06-22T07:54:57;11.18;;;5.03;;
73776;SDS011;62088;50.240;2.696;2023-06-22T07:57:25;8.43;;;4.28;;
73776;SDS011;62088;50.240;2.696;2023-06-22T08:00:03;7.68;;;4.25;;
73776;SDS011;62088;50.240;2.696;2023-06-22T08:02:39;8.43;;;4.53;;
73776;SDS011;62088;50.240;2.696;2023-06-22T08:05:08;8.68;;;4.28;;
73776;SDS011;62088;50.240;2.696;2023-06-22T08:07:46;5.97;;;3.95;;
73776;SDS011;62088;50.240;2.696;2023-06-22T08:10:15;6.50;;;4.03;;
73776;SDS011;62088;50.240;2.696;2023-06-22T08:12:42;7.18;;;4.30;;
73776;SDS011;62088;50.240;2.696;2023-06-22T08:15:09;21.85;;;5.80;;
73776;SDS011;62088;50.240;2.696;2023-06-22T08:17:37;9.32;;;5.00;;
73776;SDS011;62088;50.240;2.696;2023-06-22T08:20:06;12.13;;;5.25;;
73776;SDS011;62088;50.240;2.696;2023-06-22T08:22:39;8.23;;;4.00;;
73776;SDS011;62088;50.240;2.696;2023-06-22T08:25:06;8.38;;;4.47;;
73776;SDS011;62088;50.240;2.696;2023-06-22T08:27:34;10.23;;;4.10;;
73776;SDS011;62088;50.240;2.696;2023-06-22T08:30:02;9.75;;;4.25;;
73776;SDS011;62088;50.240;2.696;2023-06-22T08:32:29;11.32;;;3.90;;
73776;SDS011;62088;50.240;2.696;2023-06-22T08:34:57;8.00;;;4.68;;
73776;SDS011;62088;50.240;2.696;2023-06-22T08:37:24;8.70;;;4.32;;
73776;SDS011;62088;50.240;2.696;2023-06-22T08:40:00;8.68;;;4.82;;
73776;SDS011;62088;50.240;2.696;2023-06-22T08:42:36;8.20;;;4.95;;
73776;SDS011;62088;50.240;2.696;2023-06-22T08:45:04;5.88;;;3.60;;
73776;SDS011;62088;50.240;2.696;2023-06-22T08:47:32;14.07;;;4.88;;
73776;SDS011;62088;50.240;2.696;2023-06-22T08:49:59;8.65;;;4.93;;
73776;SDS011;62088;50.240;2.696;2023-06-22T08:52:28;9.25;;;4.85;;
73776;SDS011;62088;50.240;2.696;2023-06-22T08:54:56;16.60;;;6.18;;
73776;SDS011;62088;50.240;2.696;2023-06-22T08:57:24;17.40;;;5.65;;
73776;SDS011;62088;50.240;2.696;2023-06-22T08:59:52;25.73;;;5.85;;
73776;SDS011;62088;50.240;2.696;2023-06-22T09:02:19;12.07;;;5.35;;
73776;SDS011;62088;50.240;2.696;2023-06-22T09:04:46;14.05;;;5.18;;
73776;SDS011;62088;50.240;2.696;2023-06-22T09:07:14;12.32;;;5.22;;
73776;SDS011;62088;50.240;2.696;2023-06-22T09:09:41;10.52;;;5.35;;
73776;SDS011;62088;50.240;2.696;2023-06-22T09:12:08;7.60;;;5.10;;
73776;SDS011;62088;50.240;2.696;2023-06-22T09:14:36;8.73;;;4.53;;
73776;SDS011;62088;50.240;2.696;2023-06-22T09:17:03;9.40;;;5.22;;
73776;SDS011;62088;50.240;2.696;2023-06-22T09:19:30;10.93;;;4.75;;
73776;SDS011;62088;50.240;2.696;2023-06-22T09:21:57;10.63;;;5.10;;
73776;SDS011;62088;50.240;2.696;2023-06-22T09:24:24;10.20;;;5.30;;
73776;SDS011;62088;50.240;2.696;2023-06-22T09:26:51;9.98;;;5.05;;
73776;SDS011;62088;50.240;2.696;2023-06-22T09:29:18;7.68;;;5.20;;
73776;SDS011;62088;50.240;2.696;2023-06-22T09:31:45;7.90;;;5.05;;
73776;SDS011;62088;50.240;2.696;2023-06-22T09:34:13;9.25;;;5.15;;
73776;SDS011;62088;50.240;2.696;2023-06-22T09:36:41;7.95;;;5.28;;
73776;SDS011;62088;50.240;2.696;2023-06-22T09:39:08;8.88;;;5.55;;
73776;SDS011;62088;50.240;2.696;2023-06-22T09:41:35;10.00;;;5.72;;
73776;SDS011;62088;50.240;2.696;2023-06-22T09:44:02;10.40;;;5.55;;
73776;SDS011;62088;50.240;2.696;2023-06-22T09:46:29;10.55;;;6.65;;
73776;SDS011;62088;50.240;2.696;2023-06-22T09:48:56;8.60;;;5.75;;
73776;SDS011;62088;50.240;2.696;2023-06-22T09:51:23;8.63;;;5.68;;
73776;SDS011;62088;50.240;2.696;2023-06-22T09:53:50;8.18;;;5.75;;
73776;SDS011;62088;50.240;2.696;2023-06-22T09:56:18;8.43;;;5.78;;
73776;SDS011;62088;50.240;2.696;2023-06-22T09:58:46;10.82;;;5.63;;
73776;SDS011;62088;50.240;2.696;2023-06-22T10:01:13;9.68;;;5.53;;
73776;SDS011;62088;50.240;2.696;2023-06-22T10:03:43;10.80;;;5.90;;
73776;SDS011;62088;50.240;2.696;2023-06-22T10:06:11;11.63;;;6.40;;
73776;SDS011;62088;50.240;2.696;2023-06-22T10:08:38;10.32;;;5.97;;
73776;SDS011;62088;50.240;2.696;2023-06-22T10:11:07;10.27;;;6.38;;
73776;SDS011;62088;50.240;2.696;2023-06-22T10:13:34;11.20;;;6.63;;
73776;SDS011;62088;50.240;2.696;2023-06-22T10:16:01;8.30;;;5.85;;
73776;SDS011;62088;50.240;2.696;2023-06-22T10:18:28;10.57;;;6.43;;
73776;SDS011;62088;50.240;2.696;2023-06-22T10:20:57;10.88;;;6.72;;
73776;SDS011;62088;50.240;2.696;2023-06-22T10:23:24;9.55;;;7.38;;
73776;SDS011;62088;50.240;2.696;2023-06-22T10:25:51;9.60;;;6.28;;
73776;SDS011;62088;50.240;2.696;2023-06-22T10:28:18;9.15;;;6.65;;
73776;SDS011;62088;50.240;2.696;2023-06-22T10:30:45;10.02;;;6.93;;
73776;SDS011;62088;50.240;2.696;2023-06-22T10:33:12;10.13;;;6.18;;
73776;SDS011;62088;50.240;2.696;2023-06-22T10:35:39;10.80;;;6.90;;
73776;SDS011;62088;50.240;2.696;2023-06-22T10:38:06;14.07;;;7.05;;
73776;SDS011;62088;50.240;2.696;2023-06-22T10:40:34;10.93;;;6.30;;
73776;SDS011;62088;50.240;2.696;2023-06-22T10:43:02;11.88;;;7.38;;
73776;SDS011;62088;50.240;2.696;2023-06-22T10:45:29;6.88;;;4.80;;
73776;SDS011;62088;50.240;2.696;2023-06-22T10:47:56;9.85;;;6.85;;
73776;SDS011;62088;50.240;2.696;2023-06-22T10:50:24;9.60;;;7.18;;
73776;SDS011;62088;50.240;2.696;2023-06-22T10:52:52;10.82;;;7.13;;
73776;SDS011;62088;50.240;2.696;2023-06-22T10:55:22;10.68;;;6.95;;
73776;SDS011;62088;50.240;2.696;2023-06-22T10:58:00;7.75;;;5.85;;
73776;SDS011;62088;50.240;2.696;2023-06-22T11:00:27;10.98;;;7.35;;
73776;SDS011;62088;50.240;2.696;2023-06-22T11:02:54;11.15;;;7.68;;
73776;SDS011;62088;50.240;2.696;2023-06-22T11:05:21;8.90;;;6.43;;
73776;SDS011;62088;50.240;2.696;2023-06-22T11:07:48;12.15;;;8.00;;
73776;SDS011;62088;50.240;2.696;2023-06-22T11:10:16;12.02;;;7.47;;
73776;SDS011;62088;50.240;2.696;2023-06-22T11:12:43;10.27;;;6.97;;
73776;SDS011;62088;50.240;2.696;2023-06-22T11:15:10;15.73;;;7.57;;
73776;SDS011;62088;50.240;2.696;2023-06-22T11:17:38;11.73;;;7.10;;
73776;SDS011;62088;50.240;2.696;2023-06-22T11:20:05;12.82;;;7.57;;
73776;SDS011;62088;50.240;2.696;2023-06-22T11:22:39;11.45;;;7.70;;
73776;SDS011;62088;50.240;2.696;2023-06-22T11:25:07;10.52;;;7.97;;
73776;SDS011;62088;50.240;2.696;2023-06-22T11:27:35;10.10;;;7.00;;
73776;SDS011;62088;50.240;2.696;2023-06-22T11:30:02;11.35;;;7.70;;
73776;SDS011;62088;50.240;2.696;2023-06-22T11:32:30;10.50;;;7.25;;
73776;SDS011;62088;50.240;2.696;2023-06-22T11:34:57;14.95;;;8.73;;
73776;SDS011;62088;50.240;2.696;2023-06-22T11:37:24;11.30;;;7.30;;
73776;SDS011;62088;50.240;2.696;2023-06-22T11:39:52;14.18;;;7.65;;
73776;SDS011;62088;50.240;2.696;2023-06-22T11:42:32;12.70;;;8.20;;
73776;SDS011;62088;50.240;2.696;2023-06-22T11:45:00;11.90;;;7.50;;
73776;SDS011;62088;50.240;2.696;2023-06-22T11:47:29;14.63;;;7.85;;
73776;SDS011;62088;50.240;2.696;2023-06-22T11:49:56;10.18;;;6.93;;
73776;SDS011;62088;50.240;2.696;2023-06-22T11:52:23;11.75;;;7.30;;
73776;SDS011;62088;50.240;2.696;2023-06-22T11:54:50;12.55;;;7.68;;
73776;SDS011;62088;50.240;2.696;2023-06-22T11:57:17;11.95;;;8.07;;
73776;SDS011;62088;50.240;2.696;2023-06-22T11:59:44;12.07;;;7.88;;
73776;SDS011;62088;50.240;2.696;2023-06-22T12:02:11;12.40;;;7.68;;
73776;SDS011;62088;50.240;2.696;2023-06-22T12:04:38;15.95;;;8.30;;
73776;SDS011;62088;50.240;2.696;2023-06-22T12:07:05;11.48;;;7.90;;
73776;SDS011;62088;50.240;2.696;2023-06-22T12:09:32;12.55;;;8.80;;
73776;SDS011;62088;50.240;2.696;2023-06-22T12:11:59;11.98;;;7.65;;
73776;SDS011;62088;50.240;2.696;2023-06-22T12:14:26;11.77;;;7.95;;
73776;SDS011;62088;50.240;2.696;2023-06-22T12:16:55;11.23;;;7.90;;
73776;SDS011;62088;50.240;2.696;2023-06-22T12:19:23;12.75;;;8.35;;
73776;SDS011;62088;50.240;2.696;2023-06-22T12:21:50;19.88;;;8.85;;
73776;SDS011;62088;50.240;2.696;2023-06-22T12:24:17;12.77;;;9.27;;
73776;SDS011;62088;50.240;2.696;2023-06-22T12:26:44;14.30;;;9.02;;
73776;SDS011;62088;50.240;2.696;2023-06-22T12:29:11;12.27;;;9.10;;
73776;SDS011;62088;50.240;2.696;2023-06-22T12:31:38;9.82;;;7.32;;
73776;SDS011;62088;50.240;2.696;2023-06-22T12:34:06;12.80;;;9.70;;
73776;SDS011;62088;50.240;2.696;2023-06-22T12:36:33;12.77;;;8.95;;
73776;SDS011;62088;50.240;2.696;2023-06-22T12:39:00;16.48;;;8.93;;
73776;SDS011;62088;50.240;2.696;2023-06-22T12:41:27;14.30;;;8.65;;
73776;SDS011;62088;50.240;2.696;2023-06-22T12:43:54;13.15;;;8.05;;
73776;SDS011;62088;50.240;2.696;2023-06-22T12:46:21;12.55;;;8.63;;
73776;SDS011;62088;50.240;2.696;2023-06-22T12:48:49;12.75;;;8.30;;
73776;SDS011;62088;50.240;2.696;2023-06-22T12:51:22;12.63;;;9.15;;
73776;SDS011;62088;50.240;2.696;2023-06-22T12:53:49;13.43;;;9.07;;
73776;SDS011;62088;50.240;2.696;2023-06-22T12:56:16;13.15;;;8.60;;
73776;SDS011;62088;50.240;2.696;2023-06-22T12:58:43;11.20;;;7.30;;
73776;SDS011;62088;50.240;2.696;2023-06-22T13:01:11;14.30;;;9.15;;
73776;SDS011;62088;50.240;2.696;2023-06-22T13:03:38;17.13;;;10.02;;
73776;SDS011;62088;50.240;2.696;2023-06-22T13:06:05;13.20;;;9.02;;
73776;SDS011;62088;50.240;2.696;2023-06-22T13:08:32;10.68;;;8.07;;
73776;SDS011;62088;50.240;2.696;2023-06-22T13:11:19;14.25;;;9.07;;
73776;SDS011;62088;50.240;2.696;2023-06-22T13:13:46;11.95;;;8.38;;
73776;SDS011;62088;50.240;2.696;2023-06-22T13:16:14;12.02;;;8.80;;
73776;SDS011;62088;50.240;2.696;2023-06-22T13:18:40;21.40;;;10.55;;
73776;SDS011;62088;50.240;2.696;2023-06-22T13:21:08;10.15;;;7.97;;
73776;SDS011;62088;50.240;2.696;2023-06-22T13:23:35;10.43;;;7.40;;
73776;SDS011;62088;50.240;2.696;2023-06-22T13:26:02;12.40;;;8.40;;
73776;SDS011;62088;50.240;2.696;2023-06-22T13:28:29;9.93;;;7.80;;
73776;SDS011;62088;50.240;2.696;2023-06-22T13:30:56;11.65;;;8.13;;
73776;SDS011;62088;50.240;2.696;2023-06-22T13:33:23;11.63;;;8.40;;
73776;SDS011;62088;50.240;2.696;2023-06-22T13:35:51;10.68;;;8.05;;
73776;SDS011;62088;50.240;2.696;2023-06-22T13:38:18;10.63;;;7.72;;
73776;SDS011;62088;50.240;2.696;2023-06-22T13:40:45;9.20;;;7.05;;
73776;SDS011;62088;50.240;2.696;2023-06-22T13:43:13;10.40;;;6.97;;
73776;SDS011;62088;50.240;2.696;2023-06-22T13:45:42;10.35;;;7.28;;
73776;SDS011;62088;50.240;2.696;2023-06-22T13:48:09;9.13;;;6.85;;
73776;SDS011;62088;50.240;2.696;2023-06-22T13:50:36;10.38;;;7.10;;
73776;SDS011;62088;50.240;2.696;2023-06-22T13:53:03;10.90;;;7.22;;
73776;SDS011;62088;50.240;2.696;2023-06-22T13:55:31;10.02;;;7.22;;
73776;SDS011;62088;50.240;2.696;2023-06-22T13:57:58;8.27;;;5.78;;
73776;SDS011;62088;50.240;2.696;2023-06-22T14:00:25;8.77;;;6.25;;
73776;SDS011;62088;50.240;2.696;2023-06-22T14:02:54;8.68;;;6.50;;
73776;SDS011;62088;50.240;2.696;2023-06-22T14:05:22;9.27;;;6.28;;
73776;SDS011;62088;50.240;2.696;2023-06-22T14:07:49;9.05;;;6.68;;
73776;SDS011;62088;50.240;2.696;2023-06-22T14:10:16;10.10;;;6.80;;
73776;SDS011;62088;50.240;2.696;2023-06-22T14:12:43;8.05;;;6.18;;
73776;SDS011;62088;50.240;2.696;2023-06-22T14:15:11;8.48;;;5.30;;
73776;SDS011;62088;50.240;2.696;2023-06-22T14:17:38;7.82;;;5.47;;
73776;SDS011;62088;50.240;2.696;2023-06-22T14:20:05;9.23;;;5.35;;
73776;SDS011;62088;50.240;2.696;2023-06-22T14:22:34;7.30;;;4.97;;
73776;SDS011;62088;50.240;2.696;2023-06-22T14:25:02;6.65;;;5.10;;
73776;SDS011;62088;50.240;2.696;2023-06-22T14:27:31;7.40;;;4.60;;
73776;SDS011;62088;50.240;2.696;2023-06-22T14:29:58;6.85;;;4.32;;
73776;SDS011;62088;50.240;2.696;2023-06-22T14:32:27;8.88;;;4.38;;
73776;SDS011;62088;50.240;2.696;2023-06-22T14:34:56;7.97;;;4.30;;
73776;SDS011;62088;50.240;2.696;2023-06-22T14:37:23;6.95;;;4.18;;
73776;SDS011;62088;50.240;2.696;2023-06-22T14:39:50;5.78;;;3.00;;
73776;SDS011;62088;50.240;2.696;2023-06-22T14:42:17;4.50;;;3.05;;
73776;SDS011;62088;50.240;2.696;2023-06-22T14:44:44;5.20;;;2.97;;
73776;SDS011;62088;50.240;2.696;2023-06-22T14:47:11;5.30;;;3.10;;
73776;SDS011;62088;50.240;2.696;2023-06-22T14:49:38;6.63;;;3.17;;
73776;SDS011;62088;50.240;2.696;2023-06-22T14:52:07;6.38;;;3.47;;
73776;SDS011;62088;50.240;2.696;2023-06-22T14:54:34;6.55;;;3.45;;
73776;SDS011;62088;50.240;2.696;2023-06-22T14:57:01;5.75;;;3.40;;